sensor_id;sensor_type;location;lat;lon;timestamp;temperature;humidity
25937;DHT22;13733;51.178;4.450;2024-03-06T00:02:09;10.00;55.20
25937;DHT22;13733;51.178;4.450;2024-03-06T00:04:35;9.90;55.50
25937;DHT22;13733;51.178;4.450;2024-03-06T00:07:01;9.90;56.70
25937;DHT22;13733;51.178;4.450;2024-03-06T00:09:27;9.90;54.90
25937;DHT22;13733;51.178;4.450;2024-03-06T00:11:53;9.90;52.80
25937;DHT22;13733;51.178;4.450;2024-03-06T00:14:20;9.90;54.40
25937;DHT22;13733;51.178;4.450;2024-03-06T00:16:48;9.90;55.70
25937;DHT22;13733;51.178;4.450;2024-03-06T00:19:17;9.90;55.60
25937;DHT22;13733;51.178;4.450;2024-03-06T00:21:43;9.70;55.20
25937;DHT22;13733;51.178;4.450;2024-03-06T00:24:12;9.70;56.30
25937;DHT22;13733;51.178;4.450;2024-03-06T00:26:43;9.60;57.10
25937;DHT22;13733;51.178;4.450;2024-03-06T00:29:10;9.60;59.00
25937;DHT22;13733;51.178;4.450;2024-03-06T00:31:36;9.60;59.60
25937;DHT22;13733;51.178;4.450;2024-03-06T00:34:03;9.60;59.20
25937;DHT22;13733;51.178;4.450;2024-03-06T00:36:30;9.60;59.90
25937;DHT22;13733;51.178;4.450;2024-03-06T00:38:56;9.50;63.80
25937;DHT22;13733;51.178;4.450;2024-03-06T00:41:22;9.40;66.90
25937;DHT22;13733;51.178;4.450;2024-03-06T00:43:48;9.40;65.90
25937;DHT22;13733;51.178;4.450;2024-03-06T00:46:14;9.30;66.60
25937;DHT22;13733;51.178;4.450;2024-03-06T00:48:40;9.30;67.10
25937;DHT22;13733;51.178;4.450;2024-03-06T00:51:06;9.30;69.20
25937;DHT22;13733;51.178;4.450;2024-03-06T00:53:34;9.20;71.10
25937;DHT22;13733;51.178;4.450;2024-03-06T00:56:00;9.20;71.50
25937;DHT22;13733;51.178;4.450;2024-03-06T00:58:26;9.30;69.90
25937;DHT22;13733;51.178;4.450;2024-03-06T01:00:52;9.20;70.10
25937;DHT22;13733;51.178;4.450;2024-03-06T01:03:18;9.20;70.10
25937;DHT22;13733;51.178;4.450;2024-03-06T01:05:44;9.20;69.30
25937;DHT22;13733;51.178;4.450;2024-03-06T01:08:11;9.10;69.50
25937;DHT22;13733;51.178;4.450;2024-03-06T01:10:36;9.10;67.00
25937;DHT22;13733;51.178;4.450;2024-03-06T01:13:02;9.00;68.50
25937;DHT22;13733;51.178;4.450;2024-03-06T01:15:28;9.00;69.40
25937;DHT22;13733;51.178;4.450;2024-03-06T01:17:54;9.00;70.00
25937;DHT22;13733;51.178;4.450;2024-03-06T01:20:20;9.00;67.90
25937;DHT22;13733;51.178;4.450;2024-03-06T01:22:45;8.90;65.10
25937;DHT22;13733;51.178;4.450;2024-03-06T01:25:12;8.80;68.30
25937;DHT22;13733;51.178;4.450;2024-03-06T01:27:38;8.80;73.00
25937;DHT22;13733;51.178;4.450;2024-03-06T01:30:04;8.70;76.60
25937;DHT22;13733;51.178;4.450;2024-03-06T01:32:30;8.60;79.90
25937;DHT22;13733;51.178;4.450;2024-03-06T01:34:56;8.60;81.40
25937;DHT22;13733;51.178;4.450;2024-03-06T01:37:22;8.40;82.50
25937;DHT22;13733;51.178;4.450;2024-03-06T01:39:48;8.30;85.20
25937;DHT22;13733;51.178;4.450;2024-03-06T01:42:16;8.30;86.60
25937;DHT22;13733;51.178;4.450;2024-03-06T01:44:42;8.30;86.20
25937;DHT22;13733;51.178;4.450;2024-03-06T01:47:08;8.20;87.20
25937;DHT22;13733;51.178;4.450;2024-03-06T01:49:36;8.20;88.60
25937;DHT22;13733;51.178;4.450;2024-03-06T01:52:03;8.10;90.30
25937;DHT22;13733;51.178;4.450;2024-03-06T01:54:30;8.00;91.10
25937;DHT22;13733;51.178;4.450;2024-03-06T01:56:57;8.00;91.80
25937;DHT22;13733;51.178;4.450;2024-03-06T01:59:26;8.00;92.60
25937;DHT22;13733;51.178;4.450;2024-03-06T02:01:55;8.00;92.50
25937;DHT22;13733;51.178;4.450;2024-03-06T02:04:21;8.00;92.20
25937;DHT22;13733;51.178;4.450;2024-03-06T02:06:48;7.90;92.60
25937;DHT22;13733;51.178;4.450;2024-03-06T02:09:13;7.80;93.40
25937;DHT22;13733;51.178;4.450;2024-03-06T02:11:40;7.90;93.50
25937;DHT22;13733;51.178;4.450;2024-03-06T02:14:06;7.90;92.00
25937;DHT22;13733;51.178;4.450;2024-03-06T02:16:36;7.90;91.50
25937;DHT22;13733;51.178;4.450;2024-03-06T02:19:02;7.80;91.70
25937;DHT22;13733;51.178;4.450;2024-03-06T02:21:29;7.80;92.30
25937;DHT22;13733;51.178;4.450;2024-03-06T02:23:54;7.70;92.80
25937;DHT22;13733;51.178;4.450;2024-03-06T02:26:21;7.70;92.90
25937;DHT22;13733;51.178;4.450;2024-03-06T02:28:54;7.80;92.50
25937;DHT22;13733;51.178;4.450;2024-03-06T02:31:22;7.80;91.90
25937;DHT22;13733;51.178;4.450;2024-03-06T02:33:49;7.80;91.50
25937;DHT22;13733;51.178;4.450;2024-03-06T02:36:18;7.80;90.90
25937;DHT22;13733;51.178;4.450;2024-03-06T02:38:44;7.70;91.50
25937;DHT22;13733;51.178;4.450;2024-03-06T02:41:11;7.70;92.30
25937;DHT22;13733;51.178;4.450;2024-03-06T02:43:39;7.60;92.80
25937;DHT22;13733;51.178;4.450;2024-03-06T02:46:05;7.60;93.50
25937;DHT22;13733;51.178;4.450;2024-03-06T02:48:31;7.60;94.20
25937;DHT22;13733;51.178;4.450;2024-03-06T02:50:57;7.60;94.50
25937;DHT22;13733;51.178;4.450;2024-03-06T02:53:23;7.50;94.30
25937;DHT22;13733;51.178;4.450;2024-03-06T02:55:49;7.50;94.20
25937;DHT22;13733;51.178;4.450;2024-03-06T02:58:15;7.50;94.50
25937;DHT22;13733;51.178;4.450;2024-03-06T03:00:43;7.40;94.80
25937;DHT22;13733;51.178;4.450;2024-03-06T03:03:09;7.30;95.20
25937;DHT22;13733;51.178;4.450;2024-03-06T03:05:38;7.30;95.40
25937;DHT22;13733;51.178;4.450;2024-03-06T03:08:05;7.10;96.30
25937;DHT22;13733;51.178;4.450;2024-03-06T03:10:31;7.00;97.30
25937;DHT22;13733;51.178;4.450;2024-03-06T03:12:57;7.00;98.20
25937;DHT22;13733;51.178;4.450;2024-03-06T03:15:23;6.90;98.50
25937;DHT22;13733;51.178;4.450;2024-03-06T03:17:48;6.90;98.90
25937;DHT22;13733;51.178;4.450;2024-03-06T03:20:14;6.90;99.20
25937;DHT22;13733;51.178;4.450;2024-03-06T03:22:42;6.90;99.20
25937;DHT22;13733;51.178;4.450;2024-03-06T03:25:12;6.90;98.90
25937;DHT22;13733;51.178;4.450;2024-03-06T03:27:41;6.90;98.40
25937;DHT22;13733;51.178;4.450;2024-03-06T03:30:12;6.80;98.40
25937;DHT22;13733;51.178;4.450;2024-03-06T03:32:38;6.70;98.70
25937;DHT22;13733;51.178;4.450;2024-03-06T03:35:07;6.70;99.30
25937;DHT22;13733;51.178;4.450;2024-03-06T03:37:33;6.70;99.50
25937;DHT22;13733;51.178;4.450;2024-03-06T03:39:59;6.70;99.30
25937;DHT22;13733;51.178;4.450;2024-03-06T03:42:25;6.70;99.10
25937;DHT22;13733;51.178;4.450;2024-03-06T03:44:51;6.70;98.60
25937;DHT22;13733;51.178;4.450;2024-03-06T03:47:18;6.70;97.70
25937;DHT22;13733;51.178;4.450;2024-03-06T03:49:44;6.50;97.50
25937;DHT22;13733;51.178;4.450;2024-03-06T03:52:10;6.50;98.10
25937;DHT22;13733;51.178;4.450;2024-03-06T03:54:37;6.40;98.30
25937;DHT22;13733;51.178;4.450;2024-03-06T03:57:04;6.30;98.90
25937;DHT22;13733;51.178;4.450;2024-03-06T03:59:29;6.30;99.40
25937;DHT22;13733;51.178;4.450;2024-03-06T04:01:55;6.20;99.40
25937;DHT22;13733;51.178;4.450;2024-03-06T04:04:23;6.20;99.40
25937;DHT22;13733;51.178;4.450;2024-03-06T04:06:48;6.10;99.50
25937;DHT22;13733;51.178;4.450;2024-03-06T04:09:14;6.00;99.90
25937;DHT22;13733;51.178;4.450;2024-03-06T04:11:40;6.00;99.90
25937;DHT22;13733;51.178;4.450;2024-03-06T04:14:07;6.00;99.90
25937;DHT22;13733;51.178;4.450;2024-03-06T04:16:35;6.00;99.90
25937;DHT22;13733;51.178;4.450;2024-03-06T04:19:01;5.90;99.90
25937;DHT22;13733;51.178;4.450;2024-03-06T04:21:27;5.90;99.90
25937;DHT22;13733;51.178;4.450;2024-03-06T04:23:53;5.90;99.90
25937;DHT22;13733;51.178;4.450;2024-03-06T04:26:19;5.80;99.90
25937;DHT22;13733;51.178;4.450;2024-03-06T04:28:46;5.80;99.90
25937;DHT22;13733;51.178;4.450;2024-03-06T04:31:11;5.80;99.90
25937;DHT22;13733;51.178;4.450;2024-03-06T04:33:37;5.70;99.90
25937;DHT22;13733;51.178;4.450;2024-03-06T04:36:04;5.70;99.90
25937;DHT22;13733;51.178;4.450;2024-03-06T04:38:34;5.70;99.90
25937;DHT22;13733;51.178;4.450;2024-03-06T04:41:00;5.70;99.90
25937;DHT22;13733;51.178;4.450;2024-03-06T04:43:31;5.70;99.90
25937;DHT22;13733;51.178;4.450;2024-03-06T04:45:57;5.70;99.90
25937;DHT22;13733;51.178;4.450;2024-03-06T04:48:23;5.60;99.90
25937;DHT22;13733;51.178;4.450;2024-03-06T04:50:49;5.60;99.90
25937;DHT22;13733;51.178;4.450;2024-03-06T04:53:15;5.60;99.90
25937;DHT22;13733;51.178;4.450;2024-03-06T04:55:40;5.60;99.90
25937;DHT22;13733;51.178;4.450;2024-03-06T04:58:06;5.60;99.90
25937;DHT22;13733;51.178;4.450;2024-03-06T05:00:32;5.50;99.90
25937;DHT22;13733;51.178;4.450;2024-03-06T05:02:58;5.60;99.90
25937;DHT22;13733;51.178;4.450;2024-03-06T05:05:24;5.50;99.90
25937;DHT22;13733;51.178;4.450;2024-03-06T05:07:50;5.50;99.90
25937;DHT22;13733;51.178;4.450;2024-03-06T05:10:17;5.50;99.90
25937;DHT22;13733;51.178;4.450;2024-03-06T05:12:43;5.50;99.90
25937;DHT22;13733;51.178;4.450;2024-03-06T05:15:10;5.40;99.90
25937;DHT22;13733;51.178;4.450;2024-03-06T05:17:36;5.40;99.90
25937;DHT22;13733;51.178;4.450;2024-03-06T05:20:03;5.30;99.90
25937;DHT22;13733;51.178;4.450;2024-03-06T05:22:31;5.30;99.90
25937;DHT22;13733;51.178;4.450;2024-03-06T05:24:57;5.20;99.90
25937;DHT22;13733;51.178;4.450;2024-03-06T05:27:24;5.20;99.90
25937;DHT22;13733;51.178;4.450;2024-03-06T05:29:50;5.20;99.90
25937;DHT22;13733;51.178;4.450;2024-03-06T05:32:16;5.20;99.90
25937;DHT22;13733;51.178;4.450;2024-03-06T05:34:42;5.20;99.90
25937;DHT22;13733;51.178;4.450;2024-03-06T05:37:10;5.20;99.90
25937;DHT22;13733;51.178;4.450;2024-03-06T05:39:36;5.10;99.90
25937;DHT22;13733;51.178;4.450;2024-03-06T05:42:06;5.10;99.90
25937;DHT22;13733;51.178;4.450;2024-03-06T05:44:32;5.10;99.90
25937;DHT22;13733;51.178;4.450;2024-03-06T05:47:03;5.10;99.90
25937;DHT22;13733;51.178;4.450;2024-03-06T05:49:29;5.10;99.90
25937;DHT22;13733;51.178;4.450;2024-03-06T05:51:55;5.10;99.90
25937;DHT22;13733;51.178;4.450;2024-03-06T05:54:22;5.20;99.90
25937;DHT22;13733;51.178;4.450;2024-03-06T05:56:48;5.10;99.90
25937;DHT22;13733;51.178;4.450;2024-03-06T05:59:15;5.10;99.90
25937;DHT22;13733;51.178;4.450;2024-03-06T06:01:41;5.10;99.90
25937;DHT22;13733;51.178;4.450;2024-03-06T06:04:08;5.20;99.90
25937;DHT22;13733;51.178;4.450;2024-03-06T06:06:35;5.20;99.90
25937;DHT22;13733;51.178;4.450;2024-03-06T06:09:01;5.20;99.90
25937;DHT22;13733;51.178;4.450;2024-03-06T06:11:27;5.20;99.90
25937;DHT22;13733;51.178;4.450;2024-03-06T06:13:53;5.30;99.90
25937;DHT22;13733;51.178;4.450;2024-03-06T06:16:19;5.40;99.90
25937;DHT22;13733;51.178;4.450;2024-03-06T06:18:45;5.40;99.90
25937;DHT22;13733;51.178;4.450;2024-03-06T06:21:11;5.50;99.90
25937;DHT22;13733;51.178;4.450;2024-03-06T06:23:36;5.50;99.90
25937;DHT22;13733;51.178;4.450;2024-03-06T06:26:02;5.60;99.90
25937;DHT22;13733;51.178;4.450;2024-03-06T06:28:28;5.70;99.90
25937;DHT22;13733;51.178;4.450;2024-03-06T06:30:54;5.70;99.90
25937;DHT22;13733;51.178;4.450;2024-03-06T06:33:21;5.80;99.90
25937;DHT22;13733;51.178;4.450;2024-03-06T06:35:47;5.90;99.90
25937;DHT22;13733;51.178;4.450;2024-03-06T06:38:13;5.90;99.90
25937;DHT22;13733;51.178;4.450;2024-03-06T06:40:39;6.00;99.90
25937;DHT22;13733;51.178;4.450;2024-03-06T06:43:08;6.00;99.90
25937;DHT22;13733;51.178;4.450;2024-03-06T06:45:33;6.00;99.90
25937;DHT22;13733;51.178;4.450;2024-03-06T06:47:59;6.10;99.90
25937;DHT22;13733;51.178;4.450;2024-03-06T06:50:25;6.10;99.90
25937;DHT22;13733;51.178;4.450;2024-03-06T06:52:53;6.10;99.90
25937;DHT22;13733;51.178;4.450;2024-03-06T06:55:19;6.20;99.90
25937;DHT22;13733;51.178;4.450;2024-03-06T06:57:49;6.30;99.90
25937;DHT22;13733;51.178;4.450;2024-03-06T07:00:15;6.40;99.90
25937;DHT22;13733;51.178;4.450;2024-03-06T07:02:44;6.50;99.90
25937;DHT22;13733;51.178;4.450;2024-03-06T07:05:11;6.60;99.90
25937;DHT22;13733;51.178;4.450;2024-03-06T07:07:37;6.60;99.90
25937;DHT22;13733;51.178;4.450;2024-03-06T07:10:04;6.70;99.90
25937;DHT22;13733;51.178;4.450;2024-03-06T07:12:30;6.70;99.90
25937;DHT22;13733;51.178;4.450;2024-03-06T07:14:57;6.80;99.90
25937;DHT22;13733;51.178;4.450;2024-03-06T07:17:23;6.80;99.90
25937;DHT22;13733;51.178;4.450;2024-03-06T07:19:49;6.90;99.90
25937;DHT22;13733;51.178;4.450;2024-03-06T07:22:14;6.90;99.90
25937;DHT22;13733;51.178;4.450;2024-03-06T07:24:40;6.90;99.90
25937;DHT22;13733;51.178;4.450;2024-03-06T07:27:07;7.00;99.90
25937;DHT22;13733;51.178;4.450;2024-03-06T07:29:35;7.10;99.90
25937;DHT22;13733;51.178;4.450;2024-03-06T07:32:01;7.10;99.90
25937;DHT22;13733;51.178;4.450;2024-03-06T07:34:27;7.20;99.90
25937;DHT22;13733;51.178;4.450;2024-03-06T07:36:53;7.30;99.90
25937;DHT22;13733;51.178;4.450;2024-03-06T07:39:20;7.30;99.90
25937;DHT22;13733;51.178;4.450;2024-03-06T07:41:46;7.40;99.90
25937;DHT22;13733;51.178;4.450;2024-03-06T07:44:11;7.50;99.90
25937;DHT22;13733;51.178;4.450;2024-03-06T07:46:37;7.50;99.90
25937;DHT22;13733;51.178;4.450;2024-03-06T07:49:03;7.70;99.90
25937;DHT22;13733;51.178;4.450;2024-03-06T07:51:34;7.80;99.90
25937;DHT22;13733;51.178;4.450;2024-03-06T07:54:00;8.00;99.90
25937;DHT22;13733;51.178;4.450;2024-03-06T07:56:26;8.10;99.90
25937;DHT22;13733;51.178;4.450;2024-03-06T07:58:52;8.20;99.10
25937;DHT22;13733;51.178;4.450;2024-03-06T08:01:19;8.30;98.70
25937;DHT22;13733;51.178;4.450;2024-03-06T08:03:47;8.30;97.40
25937;DHT22;13733;51.178;4.450;2024-03-06T08:06:13;8.30;95.70
25937;DHT22;13733;51.178;4.450;2024-03-06T08:08:41;8.40;94.80
25937;DHT22;13733;51.178;4.450;2024-03-06T08:11:10;8.40;93.90
25937;DHT22;13733;51.178;4.450;2024-03-06T08:13:40;8.40;92.70
25937;DHT22;13733;51.178;4.450;2024-03-06T08:16:06;8.50;93.30
25937;DHT22;13733;51.178;4.450;2024-03-06T08:18:33;8.60;93.30
25937;DHT22;13733;51.178;4.450;2024-03-06T08:20:59;8.80;90.50
25937;DHT22;13733;51.178;4.450;2024-03-06T08:23:26;8.90;87.80
25937;DHT22;13733;51.178;4.450;2024-03-06T08:25:51;9.00;84.40
25937;DHT22;13733;51.178;4.450;2024-03-06T08:28:18;9.10;86.00
25937;DHT22;13733;51.178;4.450;2024-03-06T08:30:44;9.20;79.10
25937;DHT22;13733;51.178;4.450;2024-03-06T08:33:10;9.40;76.50
25937;DHT22;13733;51.178;4.450;2024-03-06T08:35:36;9.50;68.80
25937;DHT22;13733;51.178;4.450;2024-03-06T08:38:02;9.30;75.20
25937;DHT22;13733;51.178;4.450;2024-03-06T08:40:27;9.40;73.90
25937;DHT22;13733;51.178;4.450;2024-03-06T08:42:54;9.40;74.40
25937;DHT22;13733;51.178;4.450;2024-03-06T08:45:20;9.50;74.90
25937;DHT22;13733;51.178;4.450;2024-03-06T08:47:46;9.70;66.50
25937;DHT22;13733;51.178;4.450;2024-03-06T08:50:14;9.80;63.60
25937;DHT22;13733;51.178;4.450;2024-03-06T08:52:40;9.70;66.90
25937;DHT22;13733;51.178;4.450;2024-03-06T08:55:07;9.70;71.70
25937;DHT22;13733;51.178;4.450;2024-03-06T08:57:36;10.00;64.50
25937;DHT22;13733;51.178;4.450;2024-03-06T09:00:06;10.10;58.10
25937;DHT22;13733;51.178;4.450;2024-03-06T09:02:36;10.20;54.80
25937;DHT22;13733;51.178;4.450;2024-03-06T09:05:05;10.10;49.30
25937;DHT22;13733;51.178;4.450;2024-03-06T09:07:31;9.80;62.10
25937;DHT22;13733;51.178;4.450;2024-03-06T09:09:56;9.70;61.60
25937;DHT22;13733;51.178;4.450;2024-03-06T09:12:22;9.90;60.50
25937;DHT22;13733;51.178;4.450;2024-03-06T09:14:48;9.80;61.50
25937;DHT22;13733;51.178;4.450;2024-03-06T09:17:14;9.70;63.60
25937;DHT22;13733;51.178;4.450;2024-03-06T09:19:40;9.70;63.40
25937;DHT22;13733;51.178;4.450;2024-03-06T09:22:06;9.90;66.00
25937;DHT22;13733;51.178;4.450;2024-03-06T09:24:33;10.20;47.90
25937;DHT22;13733;51.178;4.450;2024-03-06T09:27:01;10.40;40.30
25937;DHT22;13733;51.178;4.450;2024-03-06T09:29:27;10.30;44.10
25937;DHT22;13733;51.178;4.450;2024-03-06T09:31:53;10.10;49.90
25937;DHT22;13733;51.178;4.450;2024-03-06T09:34:19;9.90;52.90
25937;DHT22;13733;51.178;4.450;2024-03-06T09:36:47;10.00;57.20
25937;DHT22;13733;51.178;4.450;2024-03-06T09:39:17;10.00;57.30
25937;DHT22;13733;51.178;4.450;2024-03-06T09:41:49;10.20;54.50
25937;DHT22;13733;51.178;4.450;2024-03-06T09:44:17;10.40;47.60
25937;DHT22;13733;51.178;4.450;2024-03-06T09:46:45;10.60;42.90
25937;DHT22;13733;51.178;4.450;2024-03-06T09:49:12;10.70;39.00
25937;DHT22;13733;51.178;4.450;2024-03-06T09:51:43;10.60;36.60
25937;DHT22;13733;51.178;4.450;2024-03-06T09:54:11;10.60;40.10
25937;DHT22;13733;51.178;4.450;2024-03-06T09:56:37;10.50;39.10
25937;DHT22;13733;51.178;4.450;2024-03-06T09:59:03;10.60;37.80
25937;DHT22;13733;51.178;4.450;2024-03-06T10:01:31;10.70;42.70
25937;DHT22;13733;51.178;4.450;2024-03-06T10:03:57;10.80;39.30
25937;DHT22;13733;51.178;4.450;2024-03-06T10:06:23;10.90;35.10
25937;DHT22;13733;51.178;4.450;2024-03-06T10:08:50;11.10;28.50
25937;DHT22;13733;51.178;4.450;2024-03-06T10:11:17;11.30;18.10
25937;DHT22;13733;51.178;4.450;2024-03-06T10:13:42;11.50;1.00
25937;DHT22;13733;51.178;4.450;2024-03-06T10:16:09;11.50;1.00
25937;DHT22;13733;51.178;4.450;2024-03-06T10:18:35;11.70;1.00
25937;DHT22;13733;51.178;4.450;2024-03-06T10:21:04;11.80;1.00
25937;DHT22;13733;51.178;4.450;2024-03-06T10:23:31;11.70;1.00
25937;DHT22;13733;51.178;4.450;2024-03-06T10:25:57;11.70;1.00
25937;DHT22;13733;51.178;4.450;2024-03-06T10:28:23;11.80;1.00
25937;DHT22;13733;51.178;4.450;2024-03-06T10:30:50;11.90;1.00
25937;DHT22;13733;51.178;4.450;2024-03-06T10:33:19;12.10;1.00
25937;DHT22;13733;51.178;4.450;2024-03-06T10:35:46;12.30;99.90
25937;DHT22;13733;51.178;4.450;2024-03-06T10:38:14;12.60;99.90
25937;DHT22;13733;51.178;4.450;2024-03-06T10:40:43;12.80;99.90
25937;DHT22;13733;51.178;4.450;2024-03-06T10:43:10;13.00;1.00
25937;DHT22;13733;51.178;4.450;2024-03-06T10:48:05;13.20;1.00
25937;DHT22;13733;51.178;4.450;2024-03-06T10:50:32;13.30;1.00
25937;DHT22;13733;51.178;4.450;2024-03-06T10:52:59;13.50;99.90
25937;DHT22;13733;51.178;4.450;2024-03-06T10:55:28;13.40;99.90
25937;DHT22;13733;51.178;4.450;2024-03-06T10:57:56;13.50;99.90
25937;DHT22;13733;51.178;4.450;2024-03-06T11:00:23;14.20;1.00
25937;DHT22;13733;51.178;4.450;2024-03-06T11:02:51;14.80;39.40
25937;DHT22;13733;51.178;4.450;2024-03-06T11:05:18;15.40;99.90
25937;DHT22;13733;51.178;4.450;2024-03-06T11:07:44;15.90;1.00
25937;DHT22;13733;51.178;4.450;2024-03-06T11:10:10;16.30;99.90
25937;DHT22;13733;51.178;4.450;2024-03-06T11:12:42;16.80;27.30
25937;DHT22;13733;51.178;4.450;2024-03-06T11:15:16;17.00;99.90
25937;DHT22;13733;51.178;4.450;2024-03-06T11:17:42;17.20;99.90
25937;DHT22;13733;51.178;4.450;2024-03-06T11:20:16;17.50;99.90
25937;DHT22;13733;51.178;4.450;2024-03-06T11:30:48;17.20;1.00
25937;DHT22;13733;51.178;4.450;2024-03-06T11:33:20;18.00;1.00
25937;DHT22;13733;51.178;4.450;2024-03-06T11:41:24;20.10;99.90
25937;DHT22;13733;51.178;4.450;2024-03-06T11:43:50;20.00;99.90
25937;DHT22;13733;51.178;4.450;2024-03-06T11:46:43;20.20;99.90
25937;DHT22;13733;51.178;4.450;2024-03-06T11:49:17;20.60;99.90
25937;DHT22;13733;51.178;4.450;2024-03-06T11:51:46;20.70;99.90
25937;DHT22;13733;51.178;4.450;2024-03-06T11:54:13;20.40;99.90
25937;DHT22;13733;51.178;4.450;2024-03-06T11:56:44;20.00;99.90
25937;DHT22;13733;51.178;4.450;2024-03-06T11:59:11;20.10;99.90
25937;DHT22;13733;51.178;4.450;2024-03-06T12:01:37;19.70;99.90
25937;DHT22;13733;51.178;4.450;2024-03-06T12:04:04;19.00;99.90
25937;DHT22;13733;51.178;4.450;2024-03-06T12:06:32;18.50;99.90
25937;DHT22;13733;51.178;4.450;2024-03-06T12:08:58;18.20;99.90
25937;DHT22;13733;51.178;4.450;2024-03-06T12:11:25;18.50;99.90
25937;DHT22;13733;51.178;4.450;2024-03-06T12:13:56;18.60;99.90
25937;DHT22;13733;51.178;4.450;2024-03-06T12:16:23;19.60;99.90
25937;DHT22;13733;51.178;4.450;2024-03-06T12:18:56;20.80;99.90
25937;DHT22;13733;51.178;4.450;2024-03-06T12:21:30;21.20;99.90
25937;DHT22;13733;51.178;4.450;2024-03-06T12:24:07;22.30;58.40
25937;DHT22;13733;51.178;4.450;2024-03-06T12:26:33;21.70;1.00
25937;DHT22;13733;51.178;4.450;2024-03-06T12:29:10;20.70;1.00
25937;DHT22;13733;51.178;4.450;2024-03-06T12:31:39;20.40;1.00
25937;DHT22;13733;51.178;4.450;2024-03-06T12:34:08;19.30;1.00
25937;DHT22;13733;51.178;4.450;2024-03-06T12:36:34;18.60;1.00
25937;DHT22;13733;51.178;4.450;2024-03-06T12:39:04;18.40;1.00
25937;DHT22;13733;51.178;4.450;2024-03-06T12:41:41;17.90;45.50
25937;DHT22;13733;51.178;4.450;2024-03-06T12:44:07;17.40;95.80
25937;DHT22;13733;51.178;4.450;2024-03-06T12:46:33;17.00;99.90
25937;DHT22;13733;51.178;4.450;2024-03-06T12:49:00;16.70;99.90
25937;DHT22;13733;51.178;4.450;2024-03-06T12:51:25;16.60;99.90
25937;DHT22;13733;51.178;4.450;2024-03-06T12:53:51;16.50;99.90
25937;DHT22;13733;51.178;4.450;2024-03-06T12:56:18;16.60;99.90
25937;DHT22;13733;51.178;4.450;2024-03-06T12:58:45;16.60;99.90
25937;DHT22;13733;51.178;4.450;2024-03-06T13:01:11;16.50;99.90
25937;DHT22;13733;51.178;4.450;2024-03-06T13:03:37;17.00;99.90
25937;DHT22;13733;51.178;4.450;2024-03-06T13:06:05;17.20;99.90
25937;DHT22;13733;51.178;4.450;2024-03-06T13:08:31;17.40;99.90
25937;DHT22;13733;51.178;4.450;2024-03-06T13:10:57;17.70;99.90
25937;DHT22;13733;51.178;4.450;2024-03-06T13:13:24;17.60;99.90
25937;DHT22;13733;51.178;4.450;2024-03-06T13:15:51;17.60;99.90
25937;DHT22;13733;51.178;4.450;2024-03-06T13:18:17;17.50;99.90
25937;DHT22;13733;51.178;4.450;2024-03-06T13:20:43;17.50;99.90
25937;DHT22;13733;51.178;4.450;2024-03-06T13:23:10;17.50;99.90
25937;DHT22;13733;51.178;4.450;2024-03-06T13:25:37;17.60;99.90
25937;DHT22;13733;51.178;4.450;2024-03-06T13:28:05;17.70;99.90
25937;DHT22;13733;51.178;4.450;2024-03-06T13:30:31;17.60;99.90
25937;DHT22;13733;51.178;4.450;2024-03-06T13:32:58;17.30;99.90
25937;DHT22;13733;51.178;4.450;2024-03-06T13:35:24;17.20;99.90
25937;DHT22;13733;51.178;4.450;2024-03-06T13:37:50;17.00;99.90
25937;DHT22;13733;51.178;4.450;2024-03-06T13:40:16;17.30;99.90
25937;DHT22;13733;51.178;4.450;2024-03-06T13:42:43;17.20;99.90
25937;DHT22;13733;51.178;4.450;2024-03-06T13:45:09;17.30;99.90
25937;DHT22;13733;51.178;4.450;2024-03-06T13:47:43;18.40;99.90
25937;DHT22;13733;51.178;4.450;2024-03-06T13:50:15;21.30;99.90
25937;DHT22;13733;51.178;4.450;2024-03-06T13:52:42;23.40;21.80
25937;DHT22;13733;51.178;4.450;2024-03-06T13:55:09;24.40;1.00
25937;DHT22;13733;51.178;4.450;2024-03-06T13:57:36;25.40;1.00
25937;DHT22;13733;51.178;4.450;2024-03-06T14:00:04;26.30;1.00
25937;DHT22;13733;51.178;4.450;2024-03-06T14:02:37;26.90;1.00
25937;DHT22;13733;51.178;4.450;2024-03-06T14:05:04;27.60;1.00
25937;DHT22;13733;51.178;4.450;2024-03-06T14:07:31;28.00;1.00
25937;DHT22;13733;51.178;4.450;2024-03-06T14:09:56;28.70;1.00
25937;DHT22;13733;51.178;4.450;2024-03-06T14:12:22;27.80;1.00
25937;DHT22;13733;51.178;4.450;2024-03-06T14:14:49;26.30;1.00
25937;DHT22;13733;51.178;4.450;2024-03-06T14:17:15;24.80;99.90
25937;DHT22;13733;51.178;4.450;2024-03-06T14:19:41;23.40;99.90
25937;DHT22;13733;51.178;4.450;2024-03-06T14:22:07;22.90;99.90
25937;DHT22;13733;51.178;4.450;2024-03-06T14:24:33;23.70;99.90
25937;DHT22;13733;51.178;4.450;2024-03-06T14:27:00;23.60;99.90
25937;DHT22;13733;51.178;4.450;2024-03-06T14:29:26;23.20;99.90
25937;DHT22;13733;51.178;4.450;2024-03-06T14:31:55;22.10;99.90
25937;DHT22;13733;51.178;4.450;2024-03-06T14:34:21;20.80;99.90
25937;DHT22;13733;51.178;4.450;2024-03-06T14:36:50;20.80;99.90
25937;DHT22;13733;51.178;4.450;2024-03-06T14:39:17;20.60;99.90
25937;DHT22;13733;51.178;4.450;2024-03-06T14:41:43;19.70;1.00
25937;DHT22;13733;51.178;4.450;2024-03-06T14:44:10;18.90;1.00
25937;DHT22;13733;51.178;4.450;2024-03-06T14:46:36;18.50;1.00
25937;DHT22;13733;51.178;4.450;2024-03-06T14:49:03;18.30;1.00
25937;DHT22;13733;51.178;4.450;2024-03-06T14:51:30;18.00;1.00
25937;DHT22;13733;51.178;4.450;2024-03-06T14:53:56;17.70;1.00
25937;DHT22;13733;51.178;4.450;2024-03-06T14:56:21;17.30;1.00
25937;DHT22;13733;51.178;4.450;2024-03-06T14:58:48;17.00;1.00
25937;DHT22;13733;51.178;4.450;2024-03-06T15:01:13;16.60;1.00
25937;DHT22;13733;51.178;4.450;2024-03-06T15:03:39;16.50;1.00
25937;DHT22;13733;51.178;4.450;2024-03-06T15:06:06;16.30;1.00
25937;DHT22;13733;51.178;4.450;2024-03-06T15:08:33;16.30;99.90
25937;DHT22;13733;51.178;4.450;2024-03-06T15:11:00;16.30;99.90
25937;DHT22;13733;51.178;4.450;2024-03-06T15:13:26;16.30;99.90
25937;DHT22;13733;51.178;4.450;2024-03-06T15:15:53;16.60;99.90
25937;DHT22;13733;51.178;4.450;2024-03-06T15:18:20;16.50;99.90
25937;DHT22;13733;51.178;4.450;2024-03-06T15:20:46;16.20;99.90
25937;DHT22;13733;51.178;4.450;2024-03-06T15:23:12;16.10;99.90
25937;DHT22;13733;51.178;4.450;2024-03-06T15:25:38;16.00;99.90
25937;DHT22;13733;51.178;4.450;2024-03-06T15:28:04;16.00;99.90
25937;DHT22;13733;51.178;4.450;2024-03-06T15:30:30;16.70;99.90
25937;DHT22;13733;51.178;4.450;2024-03-06T15:32:57;18.40;99.90
25937;DHT22;13733;51.178;4.450;2024-03-06T15:35:23;20.20;21.70
25937;DHT22;13733;51.178;4.450;2024-03-06T15:37:50;21.80;1.00
25937;DHT22;13733;51.178;4.450;2024-03-06T15:40:16;22.80;1.00
25937;DHT22;13733;51.178;4.450;2024-03-06T15:42:42;23.50;1.00
25937;DHT22;13733;51.178;4.450;2024-03-06T15:45:11;24.20;1.00
25937;DHT22;13733;51.178;4.450;2024-03-06T15:47:37;25.10;1.00
25937;DHT22;13733;51.178;4.450;2024-03-06T15:50:04;26.20;1.00
25937;DHT22;13733;51.178;4.450;2024-03-06T15:52:37;25.60;1.00
25937;DHT22;13733;51.178;4.450;2024-03-06T15:55:07;24.00;1.00
25937;DHT22;13733;51.178;4.450;2024-03-06T15:57:33;23.90;1.00